createdAt,value
2023-05-19T00:00:24.789Z,75.34
2023-05-19T00:02:55.789Z,76.02
2023-05-19T00:05:27.588Z,75.78
2023-05-19T00:07:58.950Z,75.18
2023-05-19T00:10:31.285Z,75.12
2023-05-19T00:13:01.849Z,74.98
2023-05-19T00:15:31.853Z,76.02
2023-05-19T00:18:00.488Z,76.43
2023-05-19T00:20:29.239Z,76.47
2023-05-19T00:22:58.205Z,75.97
2023-05-19T00:25:27.522Z,76.57
2023-05-19T00:27:58.024Z,76.61
2023-05-19T00:30:27.017Z,76.86
2023-05-19T00:32:56.019Z,76.70
2023-05-19T00:35:25.257Z,77.28
2023-05-19T00:37:53.923Z,76.20
2023-05-19T00:40:24.431Z,75.99
2023-05-19T00:42:53.150Z,75.44
2023-05-19T00:45:22.635Z,74.85
2023-05-19T00:47:51.442Z,74.68
2023-05-19T00:50:20.524Z,74.24
2023-05-19T00:52:49.463Z,74.62
2023-05-19T00:55:19.467Z,74.27
2023-05-19T00:57:49.817Z,74.14
2023-05-19T01:00:19.022Z,74.70
2023-05-19T01:02:48.013Z,75.35
2023-05-19T01:05:17.530Z,75.83
2023-05-19T01:07:47.416Z,76.16
2023-05-19T01:10:16.126Z,76.26
2023-05-19T01:12:44.798Z,76.93
2023-05-19T01:15:14.837Z,76.53
2023-05-19T01:17:49.969Z,76.01
2023-05-19T01:20:25.452Z,76.24
2023-05-19T01:23:14.651Z,77.08
2023-05-19T01:26:12.833Z,77.40
2023-05-19T01:29:12.244Z,77.43
2023-05-19T01:31:44.121Z,77.01
2023-05-19T01:34:14.686Z,77.35
2023-05-19T01:36:44.869Z,77.40
2023-05-19T01:39:15.272Z,77.89
2023-05-19T01:41:45.916Z,78.06
2023-05-19T01:44:16.272Z,78.57
2023-05-19T01:46:45.330Z,79.05
2023-05-19T01:49:14.948Z,79.25
2023-05-19T01:51:44.371Z,78.99
2023-05-19T01:54:13.233Z,78.05
2023-05-19T01:56:53.005Z,78.18
2023-05-19T01:59:52.236Z,78.88
2023-05-19T02:02:28.995Z,79.28
2023-05-19T02:05:03.480Z,78.25
2023-05-19T02:07:42.090Z,78.17
2023-05-19T02:10:19.519Z,78.55
2023-05-19T02:12:50.998Z,78.58
2023-05-19T02:15:25.556Z,78.01
2023-05-19T02:17:55.764Z,77.89
2023-05-19T02:20:24.587Z,77.66
2023-05-19T02:22:53.423Z,77.68
2023-05-19T02:25:23.008Z,77.45
2023-05-19T02:27:52.694Z,76.78
2023-05-19T02:30:21.491Z,77.27
2023-05-19T02:32:50.302Z,77.71
2023-05-19T02:35:19.628Z,77.19
2023-05-19T02:37:48.327Z,76.91
2023-05-19T02:40:17.479Z,77.12
2023-05-19T02:42:46.274Z,76.65
2023-05-19T02:45:15.298Z,76.07
2023-05-19T02:47:44.269Z,76.28
2023-05-19T02:50:13.206Z,76.24
2023-05-19T02:52:41.900Z,76.82
2023-05-19T02:55:16.555Z,77.13
2023-05-19T02:57:45.164Z,77.41
2023-05-19T03:00:15.649Z,77.82
2023-05-19T03:02:44.451Z,78.17
2023-05-19T03:05:14.035Z,77.61
2023-05-19T03:07:42.705Z,77.64
2023-05-19T03:10:11.707Z,78.03
2023-05-19T03:12:40.303Z,77.75
2023-05-19T03:15:12.684Z,77.27
2023-05-19T03:17:41.444Z,77.05
2023-05-19T03:20:12.138Z,77.06
2023-05-19T03:22:41.131Z,77.18
2023-05-19T03:25:10.837Z,77.32
2023-05-19T03:27:51.002Z,77.34
2023-05-19T03:30:31.135Z,77.02
2023-05-19T03:33:12.482Z,76.94
2023-05-19T03:35:54.936Z,76.03
2023-05-19T03:38:34.874Z,76.54
2023-05-19T03:41:16.776Z,76.67
2023-05-19T03:43:45.611Z,76.98
2023-05-19T03:46:14.455Z,76.97
2023-05-19T03:48:43.292Z,76.76
2023-05-19T03:51:11.959Z,76.54
2023-05-19T03:53:41.368Z,76.88
2023-05-19T03:56:13.252Z,76.87
2023-05-19T03:58:43.086Z,76.36
2023-05-19T04:01:12.064Z,76.27
2023-05-19T04:03:41.033Z,76.43
2023-05-19T04:06:10.866Z,76.02
2023-05-19T04:08:40.066Z,76.56
2023-05-19T04:11:08.846Z,77.05
2023-05-19T04:13:37.751Z,77.44
2023-05-19T04:16:08.018Z,76.95
2023-05-19T04:18:36.988Z,76.25
2023-05-19T04:21:08.133Z,76.32
2023-05-19T04:23:36.892Z,76.80
2023-05-19T04:26:06.572Z,76.86
2023-05-19T04:28:38.709Z,77.18
2023-05-19T04:31:10.491Z,77.46
2023-05-19T04:33:39.471Z,77.28
2023-05-19T04:36:10.255Z,77.13
2023-05-19T04:38:40.169Z,77.20
2023-05-19T04:41:10.456Z,77.39
2023-05-19T04:43:41.372Z,77.69
2023-05-19T04:46:13.409Z,77.33
2023-05-19T04:48:42.946Z,77.51
2023-05-19T04:51:13.813Z,77.96
2023-05-19T04:53:43.676Z,78.49
2023-05-19T04:56:14.713Z,78.78
2023-05-19T04:58:44.540Z,79.19
2023-05-19T05:01:15.392Z,79.13
2023-05-19T05:03:44.643Z,79.12
2023-05-19T05:06:13.445Z,78.44
2023-05-19T05:08:42.272Z,78.07
2023-05-19T05:11:13.486Z,78.64
2023-05-19T05:13:43.090Z,79.45
2023-05-19T05:16:15.785Z,79.31
2023-05-19T05:18:46.528Z,79.35
2023-05-19T05:21:16.612Z,79.82
2023-05-19T05:23:47.589Z,80.28
2023-05-19T05:26:19.948Z,80.98
2023-05-19T05:28:48.606Z,81.28
2023-05-19T05:31:17.574Z,81.39
2023-05-19T05:33:47.041Z,81.03
2023-05-19T05:36:15.891Z,80.77
2023-05-19T05:38:44.927Z,81.13
2023-05-19T05:41:13.725Z,81.50
2023-05-19T05:43:42.557Z,81.49
2023-05-19T05:46:11.533Z,80.61
2023-05-19T05:48:42.333Z,80.86
2023-05-19T05:51:13.252Z,80.50
2023-05-19T05:53:45.009Z,80.60
2023-05-19T05:56:16.953Z,80.83
2023-05-19T05:58:45.800Z,80.19
2023-05-19T06:01:17.347Z,80.50
2023-05-19T06:03:46.222Z,80.36
2023-05-19T06:06:14.967Z,80.41
2023-05-19T06:08:43.963Z,80.18
2023-05-19T06:11:12.774Z,80.44
2023-05-19T06:13:41.665Z,80.55
2023-05-19T06:16:10.654Z,79.29
2023-05-19T06:18:39.886Z,78.70
2023-05-19T06:21:09.961Z,78.53
2023-05-19T06:23:38.684Z,78.59
2023-05-19T06:26:07.801Z,78.90
2023-05-19T06:28:36.569Z,78.95
2023-05-19T06:31:05.657Z,79.17
2023-05-19T06:33:34.464Z,78.62
2023-05-19T06:36:03.462Z,78.09
2023-05-19T06:38:32.438Z,78.03
2023-05-19T06:41:01.257Z,77.77
2023-05-19T06:43:30.174Z,77.43
2023-05-19T06:45:59.214Z,77.91
2023-05-19T06:48:28.131Z,78.19
2023-05-19T06:50:57.047Z,77.68
2023-05-19T06:53:26.015Z,76.88
2023-05-19T06:55:59.913Z,76.28
2023-05-19T06:58:28.990Z,76.42
2023-05-19T07:00:57.927Z,76.66
2023-05-19T07:03:26.956Z,76.22
2023-05-19T07:05:56.704Z,76.01
2023-05-19T07:08:27.429Z,76.45
2023-05-19T07:10:56.283Z,76.53
2023-05-19T22:09:02.239Z,75.66
2023-05-19T22:11:31.326Z,75.95
2023-05-19T22:14:00.615Z,76.29
2023-05-19T22:16:30.718Z,76.07
2023-05-19T22:18:59.635Z,75.83
2023-05-19T22:21:29.052Z,75.84
2023-05-19T22:23:58.643Z,76.04
2023-05-19T22:26:27.719Z,76.38
2023-05-19T22:28:57.109Z,76.11
2023-05-19T22:31:25.953Z,76.45
2023-05-19T22:33:54.914Z,76.69
2023-05-19T22:36:24.846Z,76.38
2023-05-19T22:38:53.726Z,76.34
2023-05-19T22:41:23.692Z,76.95
2023-05-19T22:43:52.795Z,76.75
2023-05-19T22:46:22.512Z,76.32
2023-05-19T22:48:51.672Z,76.33
2023-05-19T22:51:20.594Z,76.17
2023-05-19T22:53:49.780Z,76.20
2023-05-19T22:56:18.532Z,76.18
2023-05-19T22:58:48.164Z,76.36
2023-05-19T23:01:17.129Z,76.24
2023-05-19T23:03:46.141Z,76.34
2023-05-19T23:06:14.966Z,76.77
2023-05-19T23:08:46.706Z,76.49
2023-05-19T23:11:15.622Z,76.81
2023-05-19T23:13:44.534Z,77.12
2023-05-19T23:16:13.634Z,77.05
2023-05-19T23:18:43.217Z,76.67
2023-05-19T23:21:12.221Z,76.65
2023-05-19T23:23:41.267Z,76.97
2023-05-19T23:26:12.891Z,76.94
2023-05-19T23:28:43.474Z,76.89
2023-05-19T23:31:12.957Z,75.91
2023-05-19T23:33:41.965Z,75.56
2023-05-19T23:36:12.522Z,75.74
2023-05-19T23:38:41.431Z,75.60
2023-05-19T23:41:10.588Z,75.81
2023-05-19T23:43:39.895Z,75.62
2023-05-19T23:46:09.082Z,75.40
2023-05-19T23:48:37.973Z,75.88
2023-05-19T23:51:07.454Z,76.15
2023-05-19T23:53:36.284Z,76.45
2023-05-19T23:56:05.630Z,77.17
2023-05-19T23:58:34.381Z,77.42
